Date,TemperatureHighF,TemperatureAvgF,TemperatureLowF,DewpointHighF,DewpointAvgF,DewpointLowF,HumidityHigh,HumidityAvg,HumidityLow,PressureMaxIn,PressureMinIn,WindSpeedMaxMPH,WindSpeedAvgMPH,GustSpeedMaxMPH,PrecipitationSumIn
2013-4-1,58,45,33,46,34,11,96,68,31,29.92,29.63,18,5,25,0.01
2013-4-2,43,34,24,20,14,11,67,47,28,30.09,29.92,17,4,27,0.01
2013-4-3,45,35,24,17,13,8,65,41,25,30.32,30.09,18,4,21,0.00
2013-4-4,54,40,25,24,19,13,69,44,28,30.39,30.07,10,3,16,0.00
2013-4-5,62,46,35,29,24,18,72,46,20,30.05,29.74,16,3,22,0.00
2013-4-6,53,41,31,21,15,8,58,37,17,30.29,30.02,11,3,16,0.00
2013-4-7,62,52,37,42,34,21,71,52,39,30.27,29.96,10,4,20,0.00
2013-4-8,77,62,42,50,43,39,89,55,26,30.06,29.92,8,2,13,0.00
2013-4-9,82,70,58,53,45,35,73,44,19,29.95,29.85,12,3,22,0.00
2013-4-10,83,68,55,59,54,46,97,64,41,29.91,29.75,14,3,28,0.53
2013-4-11,60,55,46,59,50,41,97,85,61,29.98,29.74,10,3,16,0.54
2013-4-12,46,43,40,43,40,38,94,90,75,29.95,29.70,11,4,19,0.55
2013-4-13,58,47,37,43,36,33,97,69,43,29.95,29.75,16,2,19,0.56
2013-4-14,59,50,42,38,32,27,81,54,32,30.17,29.94,11,2,17,0.00
2013-4-15,66,51,42,41,33,28,66,52,39,30.32,30.18,9,2,14,0.00
2013-4-16,68,57,47,57,48,36,84,72,63,30.32,30.07,14,3,19,0.00
2013-4-17,73,60,51,56,40,31,91,53,22,30.25,30.09,10,2,17,0.02
2013-4-18,56,52,44,53,45,36,94,78,56,30.28,30.04,11,2,16,0.03
2013-4-19,76,65,52,65,60,49,95,84,67,30.04,29.55,27,5,27,0.71
2013-4-20,57,49,42,47,34,21,94,59,33,30.30,29.68,12,5,24,0.76
2013-4-21,54,43,32,28,22,18,63,45,27,30.59,30.31,13,2,15,0.00
2013-4-22,56,44,31,35,31,25,91,62,40,30.62,30.46,15,3,22,0.00
2013-4-23,49,44,38,40,36,31,89,74,64,30.45,30.13,10,2,14,0.00
2013-4-24,73,54,34,56,46,33,96,75,49,30.12,29.76,11,3,14,0.00
2013-4-25,65,53,42,51,30,22,80,46,21,30.24,29.87,19,4,27,0.02
2013-4-26,66,52,38,36,30,21,81,47,20,30.40,30.24,10,2,13,0.00
2013-4-27,70,55,35,37,33,29,86,48,24,30.42,30.24,6,1,12,0.00
2013-4-28,72,58,40,43,38,31,88,51,30,30.28,30.14,12,2,17,0.00
2013-4-29,54,52,51,50,48,36,94,85,51,30.20,30.12,12,3,18,0.07
2013-4-30,68,56,48,50,40,16,94,61,18,30.30,30.16,10,2,16,0.07